Time;durP1;ratioP1;P1;durP2;ratioP2;P2;SDS_P1;SDS_P2;PMS_P1;PMS_P2;Temp;Humidity;BMP_temperature;BMP_pressure;BME280_temperature;BME280_humidity;BME280_pressure;Samples;Min_cycle;Max_cycle;Signal;HPM_P1;HPM_P2
2023/10/06 00:01:31;;;;;;;;;9.80;8.80;;;;;20.99;100.00;102033.00;2103493;27;46447;-59
2023/10/06 00:02:32;;;;;;;;;10.00;9.25;;;;;20.97;100.00;102034.91;2103856;27;46915;-58
2023/10/06 00:03:32;;;;;;;;;10.00;10.00;;;;;20.97;100.00;102034.03;2101941;27;46187;-56
2023/10/06 00:04:38;;;;;;;;;11.00;9.75;;;;;20.99;100.00;102038.41;2103442;28;46495;-60
2023/10/06 00:05:38;;;;;;;;;10.40;10.40;;;;;20.98;100.00;102025.84;2102013;28;46522;-60
2023/10/06 00:06:41;;;;;;;;;10.75;10.25;;;;;20.99;100.00;102032.13;2104204;28;46322;-60
2023/10/06 00:07:41;;;;;;;;;12.00;12.00;;;;;20.99;100.00;102033.00;2102153;27;46809;-61
2023/10/06 00:08:42;;;;;;;;;11.25;11.00;;;;;21.00;100.00;102031.19;2095989;28;46209;-58
2023/10/06 00:09:43;;;;;;;;;13.60;13.00;;;;;21.00;100.00;102028.50;2084918;28;46757;-58
2023/10/06 00:10:51;;;;;;;;;16.25;14.25;;;;;21.02;100.00;102032.88;2087226;28;46681;-59
2023/10/06 00:11:52;;;;;;;;;19.80;17.60;;;;;20.99;100.00;102035.72;2094649;28;46725;-55
2023/10/06 00:12:58;;;;;;;;;15.75;13.75;;;;;21.01;100.00;102038.34;2095395;28;46359;-60
2023/10/06 00:14:07;;;;;;;;;17.80;14.60;;;;;20.99;100.00;102035.72;2095758;27;46436;-57
2023/10/06 00:15:11;;;;;;;;;27.40;26.20;;;;;21.02;100.00;102032.00;2104134;28;46658;-59
2023/10/06 00:16:11;;;;;;;;;22.60;22.20;;;;;21.05;100.00;102032.72;2102124;27;46745;-60
2023/10/06 00:17:16;;;;;;;;;26.75;25.25;;;;;21.05;100.00;102038.13;2104709;28;46724;-56
2023/10/06 00:18:20;;;;;;;;;14.00;13.00;;;;;21.06;100.00;102041.69;2104268;27;46846;-58
2023/10/06 00:19:41;;;;;;;;;23.80;23.20;;;;;21.04;100.00;102039.06;2102743;27;46858;-59
2023/10/06 00:20:49;;;;;;;;;17.80;16.60;;;;;21.05;100.00;102037.25;2102199;28;46182;-58
2023/10/06 00:22:01;;;;;;;;;19.20;19.20;;;;;21.10;100.00;102043.34;2100017;28;46974;-60
2023/10/06 00:23:02;;;;;;;;;18.20;18.00;;;;;21.08;100.00;102051.47;2104427;28;46895;-60
2023/10/06 00:24:04;;;;;;;;;23.20;22.40;;;;;21.10;100.00;102046.03;2103778;27;47124;-60
2023/10/06 00:25:18;;;;;;;;;26.60;25.60;;;;;21.10;100.00;102046.03;2101193;28;46880;-57
2023/10/06 00:26:18;;;;;;;;;30.20;27.40;;;;;21.11;100.00;102053.19;2100034;28;46513;-60
2023/10/06 00:27:23;;;;;;;;;28.25;27.75;;;;;21.13;100.00;102035.97;2102672;28;45748;-57
2023/10/06 00:28:26;;;;;;;;;28.80;27.00;;;;;21.14;100.00;102051.22;2103016;28;46490;-60
2023/10/06 00:29:29;;;;;;;;;23.80;20.40;;;;;21.13;100.00;102046.75;2102691;28;46352;-59
2023/10/06 00:30:31;;;;;;;;;16.00;13.80;;;;;21.11;100.00;102054.06;2103360;28;46634;-59
2023/10/06 00:31:31;;;;;;;;;15.60;14.60;;;;;21.08;100.00;102043.38;2103564;28;46664;-61
2023/10/06 00:32:32;;;;;;;;;12.50;10.50;;;;;21.07;100.00;102048.84;2093332;28;46388;-61
2023/10/06 00:33:32;;;;;;;;;17.50;16.50;;;;;21.06;100.00;102050.66;2094993;28;46020;-59
2023/10/06 00:34:34;;;;;;;;;14.50;14.50;;;;;21.03;100.00;102048.13;2095346;28;47036;-57
2023/10/06 00:35:35;;;;;;;;;18.40;16.40;;;;;21.02;100.00;102043.66;2094026;28;46133;-60
2023/10/06 00:36:35;;;;;;;;;19.50;18.25;;;;;21.01;100.00;102047.31;2103805;28;46269;-59
2023/10/06 00:37:38;;;;;;;;;20.00;18.75;;;;;21.01;100.00;102049.13;2102908;28;46406;-60
2023/10/06 00:38:42;;;;;;;;;22.40;20.80;;;;;20.98;100.00;102050.16;2103683;28;46730;-61
2023/10/06 00:39:43;;;;;;;;;14.60;14.60;;;;;20.96;100.00;102052.03;2102895;28;47180;-60
2023/10/06 00:40:51;;;;;;;;;16.40;14.80;;;;;20.96;100.00;102049.34;2101558;28;46756;-60
2023/10/06 00:43:36;;;;;;;;;14.00;12.00;;;;;20.95;100.00;102055.66;2074115;28;46250;-60
2023/10/06 00:44:39;;;;;;;;;16.00;14.80;;;;;20.93;100.00;102052.16;2068979;28;46552;-60
2023/10/06 00:45:39;;;;;;;;;14.40;14.00;;;;;20.93;100.00;102053.97;2068516;28;47430;-59
2023/10/06 00:46:42;;;;;;;;;11.50;10.75;;;;;20.92;100.00;102050.41;2070637;28;46426;-61
2023/10/06 00:47:42;;;;;;;;;18.20;17.40;;;;;20.91;100.00;102051.34;2066711;28;46719;-59
2023/10/06 00:48:45;;;;;;;;;19.00;18.00;;;;;20.90;100.00;102048.72;2069381;28;46788;-59
2023/10/06 00:49:45;;;;;;;;;24.60;20.20;;;;;20.93;100.00;102048.56;2070502;28;46765;-60
2023/10/06 00:50:45;;;;;;;;;18.50;15.25;;;;;20.97;100.00;102042.13;2070795;28;46484;-60
2023/10/06 00:51:47;;;;;;;;;17.50;16.50;;;;;20.98;100.00;102044.75;2069406;28;46582;-61
2023/10/06 00:52:48;;;;;;;;;18.40;18.40;;;;;21.00;100.00;102044.69;2070670;28;46369;-58
2023/10/06 00:53:52;;;;;;;;;18.50;16.75;;;;;20.96;100.00;102040.34;2065571;28;46836;-61
2023/10/06 00:54:52;;;;;;;;;15.40;15.40;;;;;20.89;100.00;102036.19;2069735;28;46620;-59
2023/10/06 00:55:54;;;;;;;;;16.75;13.25;;;;;20.85;100.00;102030.91;2059735;28;47447;-59
2023/10/06 00:56:57;;;;;;;;;20.20;19.00;;;;;20.85;100.00;102043.53;2062260;28;46470;-58
2023/10/06 00:57:58;;;;;;;;;20.20;19.80;;;;;20.84;100.00;102047.19;2066836;28;47101;-58
2023/10/06 00:59:03;;;;;;;;;22.25;20.50;;;;;20.85;100.00;102040.84;2071114;28;46655;-60
2023/10/06 01:00:19;;;;;;;;;18.40;18.40;;;;;20.83;100.00;102045.41;2068985;28;46760;-60
2023/10/06 01:01:21;;;;;;;;;19.00;19.00;;;;;20.84;100.00;102049.88;2069665;28;45694;-56
2023/10/06 01:02:23;;;;;;;;;24.20;22.00;;;;;20.82;100.00;102047.22;2069659;28;46703;-61
2023/10/06 01:03:25;;;;;;;;;25.00;22.00;;;;;20.82;100.00;102038.25;2073512;28;46937;-58
2023/10/06 01:04:26;;;;;;;;;24.60;23.40;;;;;20.84;100.00;102034.56;2075564;28;46323;-55
2023/10/06 01:05:31;;;;;;;;;25.50;23.75;;;;;20.84;100.00;102025.59;2077176;28;46555;-56
2023/10/06 01:06:34;;;;;;;;;19.80;17.00;;;;;20.85;100.00;102032.75;2078335;28;46498;-59
2023/10/06 01:07:36;;;;;;;;;21.00;19.20;;;;;20.85;100.00;102033.63;2068514;28;46377;-60
2023/10/06 01:08:36;;;;;;;;;26.60;26.60;;;;;20.90;100.00;102030.72;2068899;28;46367;-56
2023/10/06 01:09:36;;;;;;;;;20.00;20.00;;;;;20.92;100.00;102030.63;2075533;28;46679;-60
2023/10/06 01:10:37;;;;;;;;;23.50;22.25;;;;;20.93;100.00;102027.88;2078391;28;46553;-61
2023/10/06 01:11:45;;;;;;;;;22.40;21.20;;;;;20.93;100.00;102033.25;2076860;28;46548;-58
2023/10/06 01:12:51;;;;;;;;;17.20;15.40;;;;;20.93;100.00;102027.00;2078570;28;46800;-57
2023/10/06 01:14:00;;;;;;;;;21.60;21.40;;;;;20.92;100.00;102031.50;2069663;28;46573;-59
2023/10/06 01:15:16;;;;;;;;;17.80;16.20;;;;;20.90;100.00;102028.00;2071079;28;46604;-59
2023/10/06 01:16:16;;;;;;;;;13.40;10.80;;;;;20.90;100.00;102028.00;2069371;28;46417;-57
2023/10/06 01:17:17;;;;;;;;;10.75;9.75;;;;;20.92;100.00;102034.22;2069771;28;46655;-56
2023/10/06 01:18:33;;;;;;;;;17.75;16.25;;;;;20.92;100.00;102025.25;2070301;28;46501;-58
2023/10/06 01:19:34;;;;;;;;;15.40;14.40;;;;;20.91;100.00;102029.75;2069489;28;46528;-59
2023/10/06 01:20:40;;;;;;;;;8.75;8.75;;;;;20.90;100.00;102029.81;2076213;28;46700;-60
2023/10/06 01:21:45;;;;;;;;;11.40;11.20;;;;;20.88;100.00;102024.50;2095297;28;46671;-56
2023/10/06 01:22:46;;;;;;;;;10.80;10.80;;;;;20.87;100.00;102030.84;2096387;28;46541;-59
2023/10/06 01:23:49;;;;;;;;;11.00;11.00;;;;;20.86;100.00;102027.28;2095065;28;47353;-59
2023/10/06 01:24:50;;;;;;;;;10.80;10.80;;;;;20.87;100.00;102028.16;2094202;28;46718;-59
2023/10/06 01:25:53;;;;;;;;;10.00;8.50;;;;;20.85;100.00;102016.56;2094514;28;46107;-60
2023/10/06 01:27:00;;;;;;;;;8.40;8.40;;;;;20.85;100.00;102019.25;2095387;28;46694;-59
2023/10/06 01:28:03;;;;;;;;;8.80;8.80;;;;;20.83;100.00;102022.03;2094998;28;46523;-60
2023/10/06 01:29:03;;;;;;;;;11.60;9.20;;;;;20.82;100.00;102020.22;2096288;28;46595;-60
2023/10/06 01:30:22;;;;;;;;;12.75;9.50;;;;;20.84;100.00;102015.69;2094414;28;46393;-60
2023/10/06 01:31:24;;;;;;;;;9.80;9.00;;;;;20.86;100.00;102021.88;2094785;28;45364;-60
2023/10/06 01:32:26;;;;;;;;;11.40;11.40;;;;;20.82;100.00;102022.06;2085200;28;46562;-60
2023/10/06 01:33:27;;;;;;;;;9.60;9.00;;;;;20.79;100.00;102019.50;2083765;28;46615;-60
2023/10/06 01:34:27;;;;;;;;;11.00;9.00;;;;;20.79;100.00;102023.06;2091622;28;46382;-59
2023/10/06 01:35:33;;;;;;;;;12.50;11.00;;;;;20.79;100.00;102020.38;2090499;28;46900;-57
2023/10/06 01:36:35;;;;;;;;;10.80;9.00;;;;;20.77;100.00;102024.09;2094571;28;46338;-57
2023/10/06 01:37:36;;;;;;;;;11.20;10.00;;;;;20.75;100.00;102026.88;2095053;28;46779;-57
2023/10/06 01:38:36;;;;;;;;;12.75;10.25;;;;;20.73;100.00;102022.47;2095066;28;46558;-59
2023/10/06 01:39:38;;;;;;;;;11.75;10.00;;;;;20.72;100.00;102020.72;2095115;28;46988;-59
2023/10/06 01:40:44;;;;;;;;;13.60;12.60;;;;;20.69;100.00;102023.53;2095004;28;47225;-60
2023/10/06 01:41:47;;;;;;;;;21.20;19.60;;;;;20.66;100.00;102023.69;2094846;28;47067;-58
2023/10/06 01:42:48;;;;;;;;;25.40;23.60;;;;;20.66;100.00;102027.25;2093426;28;46945;-60
2023/10/06 01:43:49;;;;;;;;;25.80;25.40;;;;;20.64;100.00;102021.06;2083790;28;45721;-59
2023/10/06 01:44:49;;;;;;;;;16.50;15.75;;;;;20.65;100.00;102022.81;2087021;28;46242;-59
2023/10/06 01:45:51;;;;;;;;;13.75;13.25;;;;;20.64;100.00;102010.25;2094785;28;46744;-59
2023/10/06 01:46:54;;;;;;;;;12.40;12.40;;;;;20.62;100.00;102013.97;2094040;28;46375;-60
2023/10/06 01:47:56;;;;;;;;;13.20;11.80;;;;;20.60;100.00;102013.16;2095003;28;46947;-60
2023/10/06 01:48:56;;;;;;;;;11.40;11.40;;;;;20.57;100.00;102012.31;2091065;28;46863;-59
2023/10/06 01:49:57;;;;;;;;;12.25;11.00;;;;;20.54;100.00;102014.28;2084478;28;46306;-57
2023/10/06 01:50:58;;;;;;;;;17.75;15.75;;;;;20.53;100.00;102012.53;2087195;28;46844;-57
2023/10/06 01:51:58;;;;;;;;;20.75;19.25;;;;;20.52;100.00;102019.75;2084821;28;46185;-59
2023/10/06 01:52:58;;;;;;;;;21.25;18.75;;;;;20.51;100.00;102017.13;2096434;28;46292;-58
2023/10/06 01:53:59;;;;;;;;;28.25;21.25;;;;;20.50;100.00;102016.25;2093280;28;46884;-60
2023/10/06 01:55:01;;;;;;;;;26.50;24.75;;;;;20.51;100.00;102012.59;2094833;28;46386;-58
2023/10/06 01:56:06;;;;;;;;;22.80;22.00;;;;;20.50;100.00;102013.56;2094820;28;46932;-58
2023/10/06 01:57:06;;;;;;;;;18.80;18.40;;;;;20.49;100.00;102011.78;2094155;28;46402;-57
2023/10/06 01:58:11;;;;;;;;;21.75;20.00;;;;;20.50;100.00;102009.97;2094629;28;46402;-60
2023/10/06 01:59:14;;;;;;;;;22.80;20.80;;;;;20.50;100.00;102010.84;2086927;28;46879;-61
2023/10/06 02:00:17;;;;;;;;;19.40;18.80;;;;;20.50;100.00;102010.84;2089813;28;46715;-59
2023/10/06 02:01:18;;;;;;;;;19.20;18.40;;;;;20.49;100.00;102010.91;2094872;28;46460;-60
2023/10/06 02:02:23;;;;;;;;;26.80;23.60;;;;;20.49;100.00;102008.22;2085163;28;46882;-59
2023/10/06 02:03:23;;;;;;;;;28.40;24.60;;;;;20.50;100.00;102013.56;2095262;28;46839;-57
2023/10/06 02:04:25;;;;;;;;;24.00;24.00;;;;;20.51;100.00;102011.72;2095982;28;46565;-59
2023/10/06 02:05:25;;;;;;;;;25.60;23.40;;;;;20.50;100.00;102012.66;2095352;28;46493;-58
2023/10/06 02:06:26;;;;;;;;;20.25;18.50;;;;;20.50;100.00;102018.94;2096037;28;46274;-60
2023/10/06 02:07:27;;;;;;;;;15.50;14.75;;;;;20.51;100.00;102014.44;2095626;28;46783;-56
2023/10/06 02:08:27;;;;;;;;;13.25;13.00;;;;;20.50;100.00;102020.75;2097330;28;46501;-59
2023/10/06 02:09:28;;;;;;;;;16.00;14.00;;;;;20.49;100.00;102013.63;2096373;28;46221;-59
2023/10/06 02:10:28;;;;;;;;;11.50;11.50;;;;;20.49;100.00;102016.31;2097530;28;47037;-60
2023/10/06 02:11:30;;;;;;;;;12.50;11.75;;;;;20.46;100.00;102009.25;2096398;28;46720;-60
2023/10/06 02:12:31;;;;;;;;;11.00;10.20;;;;;20.46;100.00;102011.06;2097428;28;46698;-60
2023/10/06 02:13:31;;;;;;;;;12.25;12.25;;;;;20.46;100.00;102008.38;2096333;28;46240;-61
2023/10/06 02:14:32;;;;;;;;;15.50;14.25;;;;;20.46;100.00;102011.94;2097325;28;46527;-60
2023/10/06 02:15:33;;;;;;;;;20.25;18.75;;;;;20.46;100.00;102008.38;2107924;27;46748;-61
2023/10/06 02:16:33;;;;;;;;;15.40;14.00;;;;;20.46;100.00;102009.25;2113183;27;46995;-61
2023/10/06 02:17:34;;;;;;;;;15.50;14.25;;;;;20.47;100.00;102010.13;2111642;27;46723;-59
2023/10/06 02:18:37;;;;;;;;;14.00;14.00;;;;;20.46;100.00;102011.06;2114331;27;46250;-60
2023/10/06 02:19:41;;;;;;;;;18.00;16.80;;;;;20.46;100.00;102008.38;2113342;27;46554;-60
2023/10/06 02:20:41;;;;;;;;;21.20;20.80;;;;;20.45;100.00;102002.06;2114526;27;46553;-61
2023/10/06 02:21:42;;;;;;;;;22.50;20.00;;;;;20.47;100.00;102004.72;2113059;27;46653;-60
2023/10/06 02:22:43;;;;;;;;;23.60;21.00;;;;;20.45;100.00;102003.88;2114046;27;46375;-59
2023/10/06 02:23:44;;;;;;;;;26.25;24.25;;;;;20.48;100.00;102001.09;2103807;27;46059;-59
2023/10/06 02:24:45;;;;;;;;;23.25;22.00;;;;;20.47;100.00;102011.00;2105654;27;46663;-60
2023/10/06 02:25:45;;;;;;;;;21.60;21.60;;;;;20.46;100.00;102006.53;2113135;27;46481;-59
2023/10/06 02:27:04;;;;;;;;;20.50;18.25;;;;;20.48;100.00;102006.47;2114451;27;46270;-60
2023/10/06 02:28:05;;;;;;;;;17.80;16.20;;;;;20.46;100.00;102006.53;2113089;27;46439;-62
2023/10/06 02:30:41;;;;;;;;;14.80;12.20;;;;;20.52;100.00;102003.56;2087669;28;47142;-60
2023/10/06 02:31:42;;;;;;;;;14.20;13.40;;;;;20.54;100.00;102001.69;2087082;28;46359;-53
2023/10/06 02:32:43;;;;;;;;;11.25;11.00;;;;;20.50;100.00;101997.38;2084802;28;46864;-58
2023/10/06 02:33:48;;;;;;;;;16.60;15.60;;;;;20.51;100.00;102000.94;2087575;28;46283;-59
2023/10/06 02:34:49;;;;;;;;;10.80;10.60;;;;;20.49;100.00;101998.31;2087552;28;46294;-57
2023/10/06 02:35:54;;;;;;;;;14.00;12.25;;;;;20.48;100.00;101996.56;2086235;28;46358;-61
2023/10/06 02:36:56;;;;;;;;;11.60;10.80;;;;;20.46;100.00;102000.28;2079499;28;47009;-58
2023/10/06 02:37:57;;;;;;;;;14.80;11.60;;;;;20.44;100.00;102000.31;2077664;28;47086;-58
2023/10/06 02:39:05;;;;;;;;;13.60;13.60;;;;;20.42;100.00;101995.94;2088005;28;46776;-58
2023/10/06 02:40:11;;;;;;;;;11.60;10.00;;;;;20.40;100.00;101998.66;2084294;28;46451;-58
2023/10/06 02:41:11;;;;;;;;;12.80;12.40;;;;;20.39;100.00;101993.34;2088033;28;46578;-57
2023/10/06 02:42:14;;;;;;;;;16.75;16.00;;;;;20.40;100.00;102000.47;2085497;28;47189;-59
2023/10/06 02:43:20;;;;;;;;;12.20;11.40;;;;;20.37;100.00;101998.81;2087099;28;46987;-55
2023/10/06 02:44:22;;;;;;;;;15.00;11.60;;;;;20.34;100.00;101996.25;2086116;28;46774;-59
2023/10/06 02:45:30;;;;;;;;;13.40;12.00;;;;;20.34;100.00;101996.25;2086393;28;46895;-58
2023/10/06 02:46:31;;;;;;;;;12.80;11.20;;;;;20.37;100.00;101992.53;2087013;28;46787;-59
2023/10/06 02:47:32;;;;;;;;;11.00;11.00;;;;;20.35;100.00;101995.28;2085939;28;46349;-58
2023/10/06 02:48:33;;;;;;;;;13.75;12.75;;;;;20.34;100.00;101989.97;2086699;28;46628;-57
2023/10/06 02:49:35;;;;;;;;;16.00;14.80;;;;;20.34;100.00;101996.25;2086241;28;46429;-58
2023/10/06 02:50:36;;;;;;;;;14.00;14.00;;;;;20.34;100.00;101992.66;2079617;28;46742;-61
2023/10/06 02:51:47;;;;;;;;;13.75;11.00;;;;;20.32;100.00;101989.13;2077887;28;46599;-59
2023/10/06 02:52:49;;;;;;;;;11.20;11.00;;;;;20.32;100.00;101994.53;2088749;28;46360;-59
2023/10/06 02:53:50;;;;;;;;;16.40;16.40;;;;;20.32;100.00;101994.53;2078003;28;46676;-56
2023/10/06 02:55:05;;;;;;;;;20.00;18.20;;;;;20.32;100.00;101992.69;2078672;28;46779;-60
2023/10/06 02:56:08;;;;;;;;;17.75;17.00;;;;;20.35;100.00;101994.41;2084970;28;47017;-59
2023/10/06 02:57:10;;;;;;;;;24.00;20.80;;;;;20.35;100.00;101989.03;2088092;28;46507;-60
2023/10/06 02:58:26;;;;;;;;;20.20;19.40;;;;;20.34;100.00;101993.53;2087101;28;46596;-60
2023/10/06 02:59:34;;;;;;;;;17.00;16.00;;;;;20.36;100.00;101991.66;2085974;28;46411;-56
2023/10/06 03:00:36;;;;;;;;;19.40;19.20;;;;;20.37;100.00;101990.72;2087220;28;46416;-59
2023/10/06 03:01:38;;;;;;;;;19.00;19.00;;;;;20.40;100.00;101990.56;2085749;28;46642;-60
2023/10/06 03:02:40;;;;;;;;;19.20;18.20;;;;;20.41;100.00;101991.44;2086376;28;46300;-61
2023/10/06 03:03:40;;;;;;;;;15.80;15.80;;;;;20.41;100.00;101997.72;2088334;28;46455;-60
2023/10/06 03:04:43;;;;;;;;;15.00;14.25;;;;;20.41;100.00;102000.41;2086190;28;46620;-57
2023/10/06 03:05:49;;;;;;;;;11.00;11.00;;;;;20.41;100.00;102002.22;2086052;28;46816;-59
2023/10/06 03:06:53;;;;;;;;;17.20;15.40;;;;;20.40;100.00;102000.47;2087617;28;46429;-59
2023/10/06 03:07:53;;;;;;;;;17.80;16.60;;;;;20.40;100.00;102009.44;2094076;27;46630;-59
2023/10/06 03:08:54;;;;;;;;;29.50;26.50;;;;;20.41;100.00;102011.19;2114224;27;46365;-58
2023/10/06 03:09:55;;;;;;;;;22.00;20.00;;;;;20.40;100.00;102000.47;2112654;27;46163;-58
2023/10/06 03:10:55;;;;;;;;;19.75;19.75;;;;;20.39;100.00;101998.72;2113568;27;46464;-57
2023/10/06 03:11:59;;;;;;;;;14.25;14.25;;;;;20.38;100.00;102005.06;2111186;27;46094;-61
2023/10/06 03:13:03;;;;;;;;;13.00;13.00;;;;;20.35;100.00;102003.38;2104927;28;46329;-59
2023/10/06 03:14:07;;;;;;;;;19.00;17.20;;;;;20.36;100.00;101999.75;2101306;27;46481;-60
2023/10/06 03:15:27;;;;;;;;;20.40;20.40;;;;;20.34;100.00;101996.25;2113883;27;46872;-61
2023/10/06 03:16:28;;;;;;;;;16.40;15.20;;;;;20.34;100.00;102007.03;2111422;27;46966;-59
2023/10/06 03:17:29;;;;;;;;;17.00;15.50;;;;;20.33;100.00;102001.66;2112619;27;46647;-59
2023/10/06 03:18:30;;;;;;;;;11.00;11.00;;;;;20.31;100.00;102004.44;2113151;27;45959;-57
2023/10/06 03:19:32;;;;;;;;;10.60;9.60;;;;;20.31;100.00;102000.84;2112360;27;46861;-60
2023/10/06 03:20:48;;;;;;;;;9.20;9.20;;;;;20.28;100.00;102005.44;2108375;27;46931;-58
2023/10/06 03:21:49;;;;;;;;;15.60;12.60;;;;;20.28;100.00;102005.44;2112627;27;46558;-59
2023/10/06 03:22:49;;;;;;;;;9.50;9.50;;;;;20.25;100.00;102002.00;2114324;27;46730;-60
2023/10/06 03:24:04;;;;;;;;;13.25;11.00;;;;;20.23;100.00;102003.91;2111742;27;46247;-59
2023/10/06 03:25:15;;;;;;;;;12.60;9.80;;;;;20.22;100.00;102003.03;2109537;27;46748;-61
2023/10/06 03:27:23;;;;;;;;;13.20;12.20;;;;;20.19;100.00;101995.03;2112537;27;46516;-57
2023/10/06 03:28:36;;;;;;;;;12.80;12.20;;;;;20.18;100.00;102000.50;2113945;27;47024;-61
2023/10/06 03:29:46;;;;;;;;;11.40;11.40;;;;;20.16;100.00;101995.16;2109644;27;46366;-60
2023/10/06 03:30:49;;;;;;;;;11.60;9.80;;;;;20.14;100.00;101998.88;2113877;27;46744;-60
2023/10/06 03:31:50;;;;;;;;;12.80;11.20;;;;;20.11;100.00;101999.00;2105477;27;46476;-61
2023/10/06 03:32:51;;;;;;;;;12.25;11.25;;;;;20.10;100.00;102006.22;2112076;27;46762;-59
2023/10/06 03:33:54;;;;;;;;;8.80;7.80;;;;;20.09;100.00;101999.06;2112477;27;46275;-57
2023/10/06 03:34:57;;;;;;;;;13.40;11.60;;;;;20.09;100.00;102001.78;2114222;27;46354;-60
2023/10/06 03:35:58;;;;;;;;;11.00;10.40;;;;;20.08;100.00;102002.72;2113898;27;45566;-58
2023/10/06 03:36:58;;;;;;;;;10.75;10.50;;;;;20.08;100.00;101999.13;2113804;27;46315;-57
2023/10/06 03:38:13;;;;;;;;;11.50;10.25;;;;;20.09;100.00;102007.16;2112324;27;46361;-61
2023/10/06 03:39:21;;;;;;;;;10.20;8.40;;;;;20.09;100.00;101999.06;2103732;28;46477;-58
2023/10/06 03:40:29;;;;;;;;;17.00;13.80;;;;;20.09;100.00;102000.91;2105143;27;45275;-58
2023/10/06 03:41:32;;;;;;;;;10.00;10.00;;;;;20.07;100.00;102000.94;2113437;27;46355;-61
2023/10/06 03:42:37;;;;;;;;;12.80;11.60;;;;;20.07;100.00;102000.94;2114045;27;46614;-60
2023/10/06 03:44:52;;;;;;;;;12.60;11.00;;;;;20.06;100.00;101995.59;2097230;28;46429;-55
2023/10/06 03:45:54;;;;;;;;;11.40;10.80;;;;;20.05;100.00;101999.25;2096944;28;47030;-60
2023/10/06 03:46:55;;;;;;;;;11.60;9.80;;;;;20.04;100.00;101995.66;2110124;27;47175;-55
2023/10/06 03:48:08;;;;;;;;;10.20;9.20;;;;;20.05;100.00;102002.81;2100107;28;46499;-60
2023/10/06 03:49:08;;;;;;;;;11.20;11.20;;;;;20.07;100.00;101998.22;2105699;27;47540;-61
2023/10/06 03:50:09;;;;;;;;;13.50;12.75;;;;;20.08;100.00;102005.41;2112646;27;46200;-58
2023/10/06 03:51:09;;;;;;;;;14.00;10.50;;;;;20.08;100.00;102002.72;2095502;28;46353;-59
2023/10/06 03:52:10;;;;;;;;;13.25;12.00;;;;;20.09;100.00;101998.19;2093525;28;46294;-60
2023/10/06 03:53:14;;;;;;;;;11.50;11.25;;;;;20.05;100.00;101997.44;2113507;27;46206;-60
2023/10/06 03:54:15;;;;;;;;;12.20;12.20;;;;;20.03;100.00;101993.91;2112491;27;46492;-56
2023/10/06 03:55:17;;;;;;;;;11.20;11.20;;;;;20.03;100.00;101996.63;2113010;27;47260;-59
2023/10/06 03:56:18;;;;;;;;;9.00;9.00;;;;;20.01;100.00;101994.94;2113452;27;46384;-59
2023/10/06 03:57:19;;;;;;;;;10.40;9.80;;;;;19.99;100.00;101998.56;2112670;27;46870;-56
2023/10/06 03:58:19;;;;;;;;;11.25;11.00;;;;;19.99;100.00;101995.88;2113707;27;46261;-58
2023/10/06 03:59:21;;;;;;;;;12.00;12.00;;;;;19.99;100.00;102006.66;2113049;27;46743;-58
2023/10/06 04:00:26;;;;;;;;;12.60;12.60;;;;;19.99;100.00;101998.56;2112953;27;46865;-56
2023/10/06 04:01:31;;;;;;;;;13.00;11.40;;;;;19.99;100.00;101998.56;2094215;28;46854;-58
2023/10/06 04:02:38;;;;;;;;;12.20;11.00;;;;;19.99;100.00;102000.38;2097382;27;46718;-59
2023/10/06 04:03:38;;;;;;;;;12.60;10.20;;;;;19.98;100.00;102006.72;2112356;27;46363;-57
2023/10/06 04:04:39;;;;;;;;;10.75;10.75;;;;;19.97;100.00;101997.75;2114475;27;46511;-60
2023/10/06 04:05:49;;;;;;;;;11.25;11.25;;;;;19.96;100.00;102001.38;2112213;27;46271;-59
2023/10/06 04:06:50;;;;;;;;;9.80;9.80;;;;;19.95;100.00;102005.03;2113683;27;46614;-57
2023/10/06 04:07:50;;;;;;;;;9.00;8.50;;;;;19.94;100.00;102005.94;2112834;27;46659;-60
2023/10/06 04:08:52;;;;;;;;;10.00;9.25;;;;;19.95;100.00;102006.84;2112689;27;46566;-58
2023/10/06 04:09:52;;;;;;;;;11.80;9.80;;;;;19.94;100.00;101996.97;2111588;27;46265;-60
2023/10/06 04:10:54;;;;;;;;;12.00;12.00;;;;;19.93;100.00;102001.50;2113800;27;46919;-60
2023/10/06 04:11:57;;;;;;;;;11.40;9.80;;;;;19.93;100.00;102004.19;2111758;27;46940;-59
2023/10/06 04:12:57;;;;;;;;;12.80;10.80;;;;;19.93;100.00;102004.19;2112058;27;46287;-59
2023/10/06 04:13:58;;;;;;;;;12.00;10.00;;;;;19.92;100.00;102002.44;2102911;28;46282;-58
2023/10/06 04:14:58;;;;;;;;;11.00;11.00;;;;;19.90;100.00;101998.06;2104052;28;46386;-59
2023/10/06 04:15:58;;;;;;;;;12.50;10.00;;;;;19.90;100.00;102003.44;2112448;27;47059;-59
2023/10/06 04:17:01;;;;;;;;;9.00;9.00;;;;;19.89;100.00;101996.31;2113814;27;46869;-58
2023/10/06 04:18:01;;;;;;;;;10.20;10.20;;;;;19.91;100.00;101997.09;2111901;27;46404;-57
2023/10/06 04:19:03;;;;;;;;;11.00;10.50;;;;;19.88;100.00;101998.13;2113816;27;46830;-59
2023/10/06 04:20:12;;;;;;;;;11.00;10.00;;;;;19.90;100.00;101996.22;2101167;28;46881;-60
2023/10/06 04:21:13;;;;;;;;;14.00;11.00;;;;;19.90;100.00;101996.22;2105318;27;46501;-56
2023/10/06 04:22:13;;;;;;;;;7.00;7.00;;;;;19.91;100.00;101997.97;2112128;27;46314;-59
2023/10/06 04:23:16;;;;;;;;;13.75;10.75;;;;;19.90;100.00;101998.06;2103883;27;46491;-58
2023/10/06 04:24:18;;;;;;;;;14.40;11.80;;;;;19.92;100.00;101998.84;2104459;27;46956;-59
2023/10/06 04:25:20;;;;;;;;;10.60;9.80;;;;;19.92;100.00;102002.44;2112136;27;46672;-59
2023/10/06 04:26:22;;;;;;;;;12.00;10.40;;;;;19.93;100.00;101996.09;2104081;27;46732;-59
2023/10/06 04:27:23;;;;;;;;;15.20;12.80;;;;;19.93;100.00;102000.63;2104556;27;46512;-59
2023/10/06 04:28:25;;;;;;;;;11.00;11.00;;;;;19.93;100.00;102004.19;2113113;27;46902;-56
2023/10/06 04:29:25;;;;;;;;;11.60;11.60;;;;;19.91;100.00;101997.97;2111050;27;46486;-59
2023/10/06 04:30:26;;;;;;;;;13.00;12.25;;;;;19.91;100.00;101999.81;2112905;27;47073;-57
2023/10/06 04:31:27;;;;;;;;;11.00;11.00;;;;;19.90;100.00;102000.75;2111297;27;46639;-57
2023/10/06 04:32:27;;;;;;;;;11.50;11.00;;;;;19.88;100.00;101999.94;2113504;27;46543;-60
2023/10/06 04:33:28;;;;;;;;;10.75;9.75;;;;;19.87;100.00;101998.19;2112677;27;47234;-59
2023/10/06 04:34:35;;;;;;;;;11.75;9.00;;;;;19.83;100.00;102002.81;2113172;27;46155;-57
2023/10/06 04:35:40;;;;;;;;;7.80;7.80;;;;;19.81;100.00;102001.09;2112933;27;46709;-59
2023/10/06 04:36:40;;;;;;;;;10.20;8.60;;;;;19.78;100.00;102001.22;2113419;27;46573;-58
2023/10/06 04:37:40;;;;;;;;;10.25;9.25;;;;;19.78;100.00;102003.94;2112386;27;46528;-57
2023/10/06 04:38:40;;;;;;;;;14.50;11.50;;;;;19.76;100.00;101998.59;2104057;28;46357;-59
2023/10/06 04:39:42;;;;;;;;;11.00;10.50;;;;;19.75;100.00;102004.94;2103915;27;46301;-59
2023/10/06 04:40:42;;;;;;;;;9.20;8.80;;;;;19.73;100.00;101997.84;2113018;27;46384;-60
2023/10/06 04:41:42;;;;;;;;;13.50;11.50;;;;;19.72;100.00;102002.38;2102456;28;46864;-55
2023/10/06 04:42:43;;;;;;;;;13.00;12.75;;;;;19.72;100.00;102004.19;2096896;28;46499;-58
2023/10/06 04:43:46;;;;;;;;;11.25;10.75;;;;;19.72;100.00;102004.19;2107462;27;46370;-59
2023/10/06 04:44:48;;;;;;;;;16.40;13.60;;;;;19.71;100.00;102005.13;2112434;27;46642;-59
2023/10/06 04:45:50;;;;;;;;;13.20;12.60;;;;;19.71;100.00;101999.75;2110988;27;46871;-56
2023/10/06 04:46:50;;;;;;;;;13.60;12.20;;;;;19.71;100.00;101999.75;2113138;27;46307;-59
2023/10/06 04:47:53;;;;;;;;;12.50;12.50;;;;;19.67;100.00;102010.59;2112290;27;46192;-57
2023/10/06 04:48:53;;;;;;;;;12.60;11.40;;;;;19.66;100.00;102005.28;2103855;28;46356;-58
2023/10/06 04:49:54;;;;;;;;;12.25;11.25;;;;;19.63;100.00;102000.03;2102474;27;46452;-60